createdAt,value
2018-09-01T00:01:35.839Z,16.91
2018-09-01T00:04:04.496Z,16.89
2018-09-01T00:06:33.169Z,16.89
2018-09-01T00:09:01.912Z,16.88
2018-09-01T00:11:30.629Z,16.86
2018-09-01T00:13:59.272Z,16.86
2018-09-01T00:16:28.028Z,16.84
2018-09-01T00:18:56.744Z,16.84
2018-09-01T00:21:25.498Z,16.82
2018-09-01T00:23:54.300Z,16.82
2018-09-01T00:26:23.053Z,16.74
2018-09-01T00:28:51.879Z,16.79
2018-09-01T00:31:20.690Z,16.78
2018-09-01T00:33:49.338Z,16.78
2018-09-01T00:36:17.999Z,16.75
2018-09-01T00:38:51.678Z,16.77
2018-09-01T00:41:20.388Z,16.77
2018-09-01T00:43:49.116Z,16.74
2018-09-01T00:46:18.377Z,16.72
2018-09-01T00:48:47.115Z,16.72
2018-09-01T00:51:15.820Z,16.72
2018-09-01T00:53:44.547Z,16.70
2018-09-01T00:56:13.247Z,16.70
2018-09-01T00:58:41.907Z,16.69
2018-09-01T01:01:10.632Z,16.67
2018-09-01T01:03:39.324Z,16.66
2018-09-01T01:06:07.987Z,16.65
2018-09-01T01:08:37.532Z,16.63
2018-09-01T01:11:06.388Z,16.62
2018-09-01T01:13:35.076Z,16.60
2018-09-01T01:16:03.746Z,16.60
2018-09-01T01:18:32.483Z,16.60
2018-09-01T01:21:01.307Z,16.59
2018-09-01T01:23:30.017Z,16.59
2018-09-01T01:25:58.760Z,16.57
2018-09-01T01:28:27.416Z,16.58
2018-09-01T01:30:56.208Z,16.58
2018-09-01T01:33:24.873Z,16.56
2018-09-01T01:35:53.556Z,16.55
2018-09-01T01:38:22.258Z,16.57
2018-09-01T01:40:50.939Z,16.58
2018-09-01T01:43:19.739Z,16.57
2018-09-01T01:45:48.437Z,16.58
2018-09-01T01:48:17.152Z,16.52
2018-09-01T01:50:45.853Z,16.57
2018-09-01T01:53:14.768Z,16.58
2018-09-01T01:55:43.485Z,16.57
2018-09-01T01:58:12.131Z,16.56
2018-09-01T02:00:40.840Z,16.56
2018-09-01T02:03:09.512Z,16.55
2018-09-01T02:05:38.208Z,16.57
2018-09-01T02:08:06.906Z,16.57
2018-09-01T02:10:35.581Z,16.58
2018-09-01T02:13:04.264Z,16.57
2018-09-01T02:15:32.926Z,16.57
2018-09-01T02:18:01.617Z,16.55
2018-09-01T02:20:30.310Z,16.57
2018-09-01T02:22:58.983Z,16.57
2018-09-01T02:25:27.657Z,16.57
2018-09-01T02:27:56.353Z,16.58
2018-09-01T02:30:25.012Z,16.58
2018-09-01T02:32:53.688Z,16.58
2018-09-01T02:35:22.368Z,16.59
2018-09-01T02:37:51.109Z,16.58
2018-09-01T02:40:19.801Z,16.59
2018-09-01T02:42:48.484Z,16.58
2018-09-01T02:45:17.170Z,16.58
2018-09-01T02:47:45.854Z,16.58
2018-09-01T02:50:14.530Z,16.58
2018-09-01T02:52:43.251Z,16.58
2018-09-01T02:55:11.942Z,16.58
2018-09-01T02:57:40.600Z,16.57
2018-09-01T03:00:14.399Z,16.58
2018-09-01T03:02:44.232Z,16.58
2018-09-01T03:05:14.222Z,16.58
2018-09-01T03:07:42.900Z,16.58
2018-09-01T03:10:11.623Z,16.58
2018-09-01T03:12:40.326Z,16.58
2018-09-01T03:15:09.052Z,16.58
2018-09-01T03:17:37.703Z,16.59
2018-09-01T03:20:06.613Z,16.58
2018-09-01T03:22:35.295Z,16.58
2018-09-01T03:25:04.020Z,16.59
2018-09-01T03:27:32.706Z,16.60
2018-09-01T03:30:01.418Z,16.59
2018-09-01T03:32:30.113Z,16.60
2018-09-01T03:34:58.784Z,16.61
2018-09-01T03:37:27.468Z,16.60
2018-09-01T03:39:56.130Z,16.60
2018-09-01T03:42:24.831Z,16.60
2018-09-01T03:44:53.595Z,16.60
2018-09-01T03:47:22.287Z,16.58
2018-09-01T03:49:51.033Z,16.61
2018-09-01T03:52:19.804Z,16.61
2018-09-01T03:54:48.485Z,16.60
2018-09-01T03:57:17.228Z,16.61
2018-09-01T03:59:45.942Z,16.60
2018-09-01T04:02:14.596Z,16.61
2018-09-01T04:04:43.261Z,16.61
2018-09-01T04:07:11.929Z,16.61
2018-09-01T04:09:40.584Z,16.61
2018-09-01T04:12:09.272Z,16.61
2018-09-01T04:14:37.969Z,16.61
2018-09-01T04:17:06.799Z,16.59
2018-09-01T04:19:35.489Z,16.62
2018-09-01T04:22:04.176Z,16.62
2018-09-01T04:24:32.859Z,16.62
2018-09-01T04:27:01.510Z,16.63
2018-09-01T04:29:30.172Z,16.61
2018-09-01T04:31:58.821Z,16.63
2018-09-01T04:34:27.503Z,16.61
2018-09-01T04:36:56.188Z,16.63
2018-09-01T04:39:24.872Z,16.59
2018-09-01T04:41:53.549Z,16.59
2018-09-01T04:44:22.199Z,16.62
2018-09-01T04:46:50.936Z,16.62
2018-09-01T04:49:19.639Z,16.61
2018-09-01T04:51:48.344Z,16.59
2018-09-01T04:54:17.034Z,16.59
2018-09-01T04:56:45.700Z,16.59
2018-09-01T04:59:14.491Z,16.58
2018-09-01T05:01:43.152Z,16.58
2018-09-01T05:04:11.859Z,16.58
2018-09-01T05:06:40.534Z,16.57
2018-09-01T05:09:09.233Z,16.58
2018-09-01T05:11:37.929Z,16.57
2018-09-01T05:14:06.619Z,16.58
2018-09-01T05:16:35.406Z,16.57
2018-09-01T05:19:04.156Z,16.58
2018-09-01T05:21:32.850Z,16.57
2018-09-01T05:24:01.626Z,16.59
2018-09-01T05:26:30.262Z,16.58
2018-09-01T05:28:58.943Z,16.58
2018-09-01T05:31:27.624Z,16.58
2018-09-01T05:33:56.393Z,16.60
2018-09-01T05:36:25.083Z,16.59
2018-09-01T05:38:53.772Z,16.61
2018-09-01T05:41:22.487Z,16.55
2018-09-01T05:43:51.187Z,16.61
2018-09-01T05:46:19.884Z,16.62
2018-09-01T05:48:48.582Z,16.64
2018-09-01T05:51:17.276Z,16.60
2018-09-01T05:53:46.116Z,16.65
2018-09-01T05:56:14.879Z,16.62
2018-09-01T05:58:43.611Z,16.68
2018-09-01T06:01:13.859Z,16.68
2018-09-01T06:03:42.637Z,16.71
2018-09-01T06:06:11.484Z,16.72
2018-09-01T06:08:40.033Z,16.69
2018-09-01T06:11:08.728Z,16.75
2018-09-01T06:13:37.395Z,16.77
2018-09-01T06:16:06.127Z,16.78
2018-09-01T06:18:34.936Z,16.81
2018-09-01T06:21:03.623Z,16.82
2018-09-01T06:23:32.388Z,16.79
2018-09-01T06:26:01.091Z,16.86
2018-09-01T06:28:33.652Z,16.88
2018-09-01T06:31:03.369Z,16.90
2018-09-01T06:33:32.147Z,16.90
2018-09-01T06:36:00.852Z,16.96
2018-09-01T06:38:29.527Z,16.97
2018-09-01T06:40:58.235Z,16.98
2018-09-01T06:43:26.920Z,17.01
2018-09-01T06:45:55.593Z,17.03
2018-09-01T06:48:24.327Z,17.05
2018-09-01T06:50:53.020Z,17.08
2018-09-01T06:53:21.729Z,17.07
2018-09-01T06:55:51.045Z,17.14
2018-09-01T06:58:20.265Z,17.18
2018-09-01T07:00:48.956Z,17.23
2018-09-01T07:03:17.671Z,17.28
2018-09-01T07:05:46.368Z,17.35
2018-09-01T07:08:15.065Z,17.40
2018-09-01T07:10:43.736Z,17.47
2018-09-01T07:13:13.051Z,17.53
2018-09-01T07:15:41.759Z,17.60
2018-09-01T07:18:10.451Z,17.65
2018-09-01T07:20:39.140Z,17.71
2018-09-01T07:23:07.868Z,17.74
2018-09-01T07:25:36.548Z,17.81
2018-09-01T07:28:05.309Z,17.87
2018-09-01T07:30:34.067Z,17.94
2018-09-01T07:33:02.764Z,17.99
2018-09-01T07:35:31.568Z,18.06
2018-09-01T07:38:00.309Z,18.12
2018-09-01T07:40:29.074Z,18.18
2018-09-01T07:42:57.786Z,18.24
2018-09-01T07:45:26.572Z,18.30
2018-09-01T07:47:55.240Z,18.37
2018-09-01T07:50:23.923Z,18.43
2018-09-01T07:52:52.579Z,18.51
2018-09-01T07:55:21.355Z,18.53
2018-09-01T07:57:50.052Z,18.60
2018-09-01T08:00:18.880Z,18.64
2018-09-01T08:02:47.624Z,18.68
2018-09-01T08:05:16.434Z,18.72
2018-09-01T08:07:45.134Z,18.77
2018-09-01T08:10:13.814Z,18.82
2018-09-01T08:12:42.544Z,18.83
2018-09-01T08:15:11.229Z,18.86
2018-09-01T08:17:39.960Z,18.91
2018-09-01T08:20:08.671Z,18.96
2018-09-01T08:22:37.473Z,19.00
2018-09-01T08:25:06.262Z,19.05
2018-09-01T08:27:35.180Z,19.07
2018-09-01T08:30:04.039Z,19.12
2018-09-01T08:32:32.727Z,19.16
2018-09-01T08:35:01.548Z,19.22
2018-09-01T08:37:30.252Z,19.25
2018-09-01T08:39:58.923Z,19.30
2018-09-01T08:42:27.728Z,19.35
2018-09-01T08:44:56.412Z,19.37
2018-09-01T08:47:25.120Z,19.40
2018-09-01T08:49:53.820Z,19.44
2018-09-01T08:52:22.524Z,19.49
2018-09-01T08:54:51.241Z,19.55
2018-09-01T08:57:19.969Z,19.60
2018-09-01T08:59:48.656Z,19.65
2018-09-01T09:02:17.335Z,19.72
2018-09-01T09:04:46.004Z,19.79
2018-09-01T09:07:14.844Z,19.83
2018-09-01T09:09:43.594Z,19.86
2018-09-01T09:12:12.267Z,19.91
2018-09-01T09:14:40.961Z,19.97
2018-09-01T09:17:09.716Z,20.02
2018-09-01T09:19:38.407Z,20.11
2018-09-01T09:22:07.168Z,20.16
2018-09-01T09:24:37.235Z,20.25
2018-09-01T09:27:06.119Z,20.33
2018-09-01T09:29:34.878Z,20.39
2018-09-01T09:32:03.747Z,20.45
2018-09-01T09:34:32.473Z,20.53
2018-09-01T09:37:01.212Z,20.59
2018-09-01T09:39:29.950Z,20.63
2018-09-01T09:41:58.644Z,20.70
2018-09-01T09:44:27.344Z,20.77
2018-09-01T09:46:56.071Z,20.83
2018-09-01T09:49:24.761Z,20.90
2018-09-01T09:51:53.447Z,20.99
2018-09-01T09:54:22.204Z,21.05
2018-09-01T09:56:50.941Z,21.09
2018-09-01T09:59:19.762Z,21.16
2018-09-01T10:01:48.487Z,21.26
2018-09-01T10:04:17.265Z,21.39
2018-09-01T10:06:45.988Z,21.47
2018-09-01T10:09:15.942Z,21.55
2018-09-01T10:11:44.762Z,21.57
2018-09-01T10:14:13.444Z,21.60
2018-09-01T10:16:42.550Z,21.68
2018-09-01T10:19:11.220Z,21.74
2018-09-01T10:21:40.038Z,21.78
2018-09-01T10:24:08.830Z,21.84
2018-09-01T10:26:37.512Z,21.91
2018-09-01T10:29:06.344Z,22.00
2018-09-01T10:31:35.075Z,22.05
2018-09-01T10:34:03.808Z,22.11
2018-09-01T10:36:32.489Z,22.14
2018-09-01T10:39:01.336Z,22.15
2018-09-01T10:41:30.722Z,22.14
2018-09-01T10:43:59.531Z,22.16
2018-09-01T10:46:28.295Z,22.21
2018-09-01T10:48:57.086Z,22.37
2018-09-01T10:51:25.803Z,22.51
2018-09-01T10:53:54.471Z,22.64
2018-09-01T10:56:23.215Z,22.73
2018-09-01T10:58:51.961Z,22.82
2018-09-01T11:01:20.675Z,22.91
2018-09-01T11:03:49.404Z,22.97
2018-09-01T11:06:18.204Z,23.00
2018-09-01T11:08:46.938Z,23.08
2018-09-01T11:11:15.789Z,23.16
2018-09-01T11:13:44.573Z,23.20
2018-09-01T11:18:40.895Z,23.28
2018-09-01T11:21:09.631Z,23.25
2018-09-01T11:23:38.367Z,23.27
2018-09-01T11:26:07.188Z,23.24
2018-09-01T11:28:35.892Z,23.21
2018-09-01T11:31:04.587Z,23.22
2018-09-01T11:33:33.278Z,23.22
2018-09-01T11:36:01.982Z,23.28
2018-09-01T11:38:30.664Z,23.32
2018-09-01T11:41:00.934Z,23.33
2018-09-01T11:43:29.588Z,23.30
2018-09-01T11:45:58.259Z,23.30
2018-09-01T11:48:26.971Z,23.36
2018-09-01T11:50:55.652Z,23.41
2018-09-01T11:53:24.330Z,23.40
2018-09-01T11:55:53.036Z,23.40
2018-09-01T11:58:21.727Z,23.44
2018-09-01T12:00:50.450Z,23.47
2018-09-01T12:03:19.207Z,23.51
2018-09-01T12:05:47.857Z,23.56
2018-09-01T12:08:16.633Z,23.62
2018-09-01T12:10:45.385Z,23.64
2018-09-01T12:13:14.086Z,23.65
2018-09-01T12:15:42.767Z,23.70
2018-09-01T12:18:11.488Z,23.72
2018-09-01T12:20:40.257Z,23.72
2018-09-01T12:23:08.951Z,23.74
2018-09-01T12:25:37.753Z,23.77
2018-09-01T12:28:06.507Z,23.76
2018-09-01T12:30:35.229Z,23.77
2018-09-01T12:33:03.901Z,23.77
2018-09-01T12:35:32.555Z,23.75
2018-09-01T12:38:01.236Z,23.74
2018-09-01T12:40:29.889Z,23.74
2018-09-01T12:42:58.518Z,23.76
2018-09-01T12:45:27.194Z,23.82
2018-09-01T12:47:55.894Z,23.86
2018-09-01T12:50:24.555Z,23.89
2018-09-01T12:52:53.224Z,23.94
2018-09-01T12:55:21.896Z,23.94
2018-09-01T12:57:50.576Z,23.89
2018-09-01T13:00:19.338Z,23.87
2018-09-01T13:02:48.101Z,23.90
2018-09-01T13:05:16.776Z,23.97
2018-09-01T13:07:45.468Z,24.00
2018-09-01T13:10:14.154Z,24.09
2018-09-01T13:12:42.804Z,24.14
2018-09-01T13:15:11.483Z,24.17
2018-09-01T13:17:40.146Z,24.18
2018-09-01T13:20:08.856Z,24.18
2018-09-01T13:22:37.540Z,24.11
2018-09-01T13:25:06.313Z,24.06
2018-09-01T13:27:35.000Z,24.02
2018-09-01T13:30:03.742Z,23.97
2018-09-01T13:32:32.542Z,23.89
2018-09-01T13:35:01.221Z,23.79
2018-09-01T13:37:29.856Z,23.68
2018-09-01T13:39:58.596Z,23.59
2018-09-01T13:42:27.260Z,23.55
2018-09-01T13:44:56.108Z,23.53
2018-09-01T13:47:24.776Z,23.51
2018-09-01T13:49:53.464Z,23.52
2018-09-01T13:52:22.173Z,23.52
2018-09-01T13:54:51.787Z,23.48
2018-09-01T13:57:20.526Z,23.46
2018-09-01T13:59:49.232Z,23.47
2018-09-01T14:02:17.931Z,23.48
2018-09-01T14:04:46.844Z,23.50
2018-09-01T14:07:15.571Z,23.60
2018-09-01T14:09:44.207Z,23.68
2018-09-01T14:12:12.864Z,23.74
2018-09-01T14:14:41.749Z,23.82
2018-09-01T14:17:10.311Z,23.89
2018-09-01T14:19:38.978Z,23.91
2018-09-01T14:22:07.722Z,24.00
2018-09-01T14:24:36.414Z,24.07
2018-09-01T14:27:05.115Z,24.14
2018-09-01T14:29:33.805Z,24.16
2018-09-01T14:32:02.488Z,24.18
2018-09-01T14:34:31.203Z,24.21
2018-09-01T14:36:59.954Z,24.27
2018-09-01T14:39:28.627Z,24.36
2018-09-01T14:41:57.314Z,24.44
2018-09-01T14:44:26.001Z,24.49
2018-09-01T14:46:54.727Z,24.57
2018-09-01T14:49:23.387Z,24.64
2018-09-01T14:51:52.125Z,24.71
2018-09-01T14:54:20.791Z,24.84
2018-09-01T14:56:49.475Z,24.95
2018-09-01T14:59:18.275Z,25.06
2018-09-01T15:01:46.902Z,25.14
2018-09-01T15:04:15.632Z,25.23
2018-09-01T15:06:45.103Z,25.32
2018-09-01T15:09:13.812Z,25.37
2018-09-01T15:11:42.631Z,25.38
2018-09-01T15:14:12.035Z,25.35
2018-09-01T15:16:40.737Z,25.31
2018-09-01T15:19:09.697Z,25.27
2018-09-01T15:21:38.336Z,25.19
2018-09-01T15:24:07.302Z,25.15
2018-09-01T15:26:36.053Z,25.09
2018-09-01T15:29:04.745Z,25.04
2018-09-01T15:31:33.413Z,25.02
2018-09-01T15:34:02.126Z,24.94
2018-09-01T15:36:30.808Z,24.84
2018-09-01T15:38:59.477Z,24.76
2018-09-01T15:41:28.147Z,24.69
2018-09-01T15:43:57.025Z,24.56
2018-09-01T15:46:25.712Z,24.46
2018-09-01T15:48:54.374Z,24.47
2018-09-01T15:51:23.036Z,24.47
2018-09-01T15:53:51.767Z,24.43
2018-09-01T15:56:20.722Z,24.35
2018-09-01T15:58:49.775Z,24.31
2018-09-01T16:01:18.460Z,24.24
2018-09-01T16:03:47.208Z,24.19
2018-09-01T16:06:15.811Z,24.14
2018-09-01T16:08:44.484Z,24.09
2018-09-01T16:11:13.135Z,24.12
2018-09-01T16:13:41.805Z,24.24
2018-09-01T16:16:10.495Z,24.41
2018-09-01T16:18:39.188Z,24.51
2018-09-01T16:21:07.853Z,24.57
2018-09-01T16:23:36.552Z,24.58
2018-09-01T16:26:05.261Z,24.56
2018-09-01T16:28:33.929Z,24.51
2018-09-01T16:31:02.681Z,24.48
2018-09-01T16:33:31.363Z,24.46
2018-09-01T16:36:00.004Z,24.46
2018-09-01T16:38:28.690Z,24.46
2018-09-01T16:40:57.434Z,24.40
2018-09-01T16:43:26.132Z,24.33
2018-09-01T16:45:54.840Z,24.24
2018-09-01T16:48:23.491Z,24.18
2018-09-01T16:50:52.204Z,24.14
2018-09-01T16:53:20.860Z,24.09
2018-09-01T16:55:49.599Z,24.06
2018-09-01T16:58:18.350Z,24.02
2018-09-01T17:00:47.098Z,24.02
2018-09-01T17:03:15.699Z,23.98
2018-09-01T17:05:44.400Z,23.93
2018-09-01T17:08:13.061Z,23.88
2018-09-01T17:10:41.730Z,23.82
2018-09-01T17:13:10.397Z,23.75
2018-09-01T17:15:39.139Z,23.67
2018-09-01T17:18:07.903Z,23.61
2018-09-01T17:20:36.589Z,23.54
2018-09-01T17:23:05.394Z,23.47
2018-09-01T17:25:34.120Z,23.43
2018-09-01T17:28:02.927Z,23.37
2018-09-01T17:30:31.554Z,23.32
2018-09-01T17:33:00.247Z,23.27
2018-09-01T17:35:28.933Z,23.21
2018-09-01T17:37:57.633Z,23.17
2018-09-01T17:40:26.328Z,23.16
2018-09-01T17:42:55.015Z,23.13
2018-09-01T17:45:23.673Z,23.11
2018-09-01T17:47:52.322Z,23.08
2018-09-01T17:50:21.035Z,23.09
2018-09-01T17:52:49.704Z,23.09
2018-09-01T17:55:18.455Z,23.10
2018-09-01T17:57:47.178Z,23.07
2018-09-01T18:00:15.849Z,23.04
2018-09-01T18:02:44.522Z,23.01
2018-09-01T18:05:13.232Z,22.96
2018-09-01T18:07:41.921Z,22.92
2018-09-01T18:10:10.703Z,22.88
2018-09-01T18:12:39.363Z,22.87
2018-09-01T18:15:08.124Z,22.84
2018-09-01T18:17:36.997Z,22.80
2018-09-01T18:20:05.904Z,22.74
2018-09-01T18:22:34.622Z,22.68
2018-09-01T18:25:03.305Z,22.59
2018-09-01T18:27:31.955Z,22.51
2018-09-01T18:30:00.660Z,22.43
2018-09-01T18:32:29.430Z,22.36
2018-09-01T18:34:58.086Z,22.30
2018-09-01T18:37:26.767Z,22.23
2018-09-01T18:39:55.433Z,22.18
2018-09-01T18:42:24.141Z,22.13
2018-09-01T18:44:52.925Z,22.10
2018-09-01T18:47:21.626Z,22.05
2018-09-01T18:49:50.392Z,21.99
2018-09-01T18:52:19.091Z,21.93
2018-09-01T18:54:47.775Z,21.90
2018-09-01T18:57:16.491Z,21.85
2018-09-01T18:59:45.185Z,21.80
2018-09-01T19:02:13.856Z,21.77
2018-09-01T19:04:42.580Z,21.74
2018-09-01T19:07:11.525Z,21.69
2018-09-01T19:09:41.596Z,21.64
2018-09-01T19:12:10.633Z,21.60
2018-09-01T19:14:40.125Z,21.56
2018-09-01T19:17:08.929Z,21.53
2018-09-01T19:19:37.665Z,21.50
2018-09-01T19:22:06.373Z,21.47
2018-09-01T19:24:36.643Z,21.44
2018-09-01T19:27:06.073Z,21.39
2018-09-01T19:29:34.975Z,21.36
2018-09-01T19:32:03.763Z,21.32
2018-09-01T19:34:33.006Z,21.27
2018-09-01T19:37:01.711Z,21.23
2018-09-01T19:39:30.381Z,21.18
2018-09-01T19:41:59.282Z,21.15
2018-09-01T19:44:28.021Z,21.11
2018-09-01T19:46:56.728Z,21.05
2018-09-01T19:49:25.403Z,21.00
2018-09-01T19:51:54.716Z,20.97
2018-09-01T19:54:23.407Z,20.94
2018-09-01T19:56:52.623Z,20.91
2018-09-01T19:59:22.708Z,20.89
2018-09-01T20:01:51.536Z,20.86
2018-09-01T20:04:21.596Z,20.83
2018-09-01T20:06:50.341Z,20.79
2018-09-01T20:09:19.951Z,20.75
2018-09-01T20:11:48.843Z,20.72
2018-09-01T20:14:17.800Z,20.66
2018-09-01T20:16:47.563Z,20.62
2018-09-01T20:19:16.303Z,20.58
2018-09-01T20:21:45.077Z,20.54
2018-09-01T20:24:13.854Z,20.51
2018-09-01T20:26:42.786Z,20.48
2018-09-01T20:29:11.875Z,20.45
2018-09-01T20:31:41.383Z,20.42
2018-09-01T20:34:10.499Z,20.40
2018-09-01T20:36:39.656Z,20.37
2018-09-01T20:39:09.104Z,20.34
2018-09-01T20:41:38.655Z,20.32
2018-09-01T20:44:07.549Z,20.29
2018-09-01T20:46:38.152Z,20.26
2018-09-01T20:49:08.632Z,20.23
2018-09-01T20:51:37.961Z,20.20
2018-09-01T20:54:06.700Z,20.18
2018-09-01T20:56:36.305Z,20.16
2018-09-01T20:59:05.162Z,20.14
2018-09-01T21:01:33.909Z,20.11
2018-09-01T21:04:03.469Z,20.07
2018-09-01T21:06:32.454Z,20.05
2018-09-01T21:09:01.294Z,20.02
2018-09-01T21:11:30.613Z,20.02
2018-09-01T21:13:59.788Z,20.00
2018-09-01T21:16:29.526Z,20.00
2018-09-01T21:18:58.396Z,19.99
2018-09-01T21:21:27.178Z,19.98
2018-09-01T21:23:56.008Z,19.97
2018-09-01T21:26:25.645Z,19.97
2018-09-01T21:28:54.828Z,19.94
2018-09-01T21:31:23.589Z,19.93
2018-09-01T21:33:52.317Z,19.91
2018-09-01T21:36:21.178Z,19.88
2018-09-01T21:38:51.070Z,19.87
2018-09-01T21:41:20.561Z,19.85
2018-09-01T21:43:50.727Z,19.84
2018-09-01T21:46:21.083Z,19.81
2018-09-01T21:48:51.107Z,19.80
2018-09-01T21:51:20.176Z,19.80
2018-09-01T21:53:49.472Z,19.79
2018-09-01T21:56:18.341Z,19.78
2018-09-01T21:58:47.760Z,19.76
2018-09-01T22:01:22.246Z,19.75
2018-09-01T22:03:51.624Z,19.73
2018-09-01T22:06:21.781Z,19.73
2018-09-01T22:08:50.615Z,19.71
2018-09-01T22:11:19.858Z,19.70
2018-09-01T22:13:49.496Z,19.68
2018-09-01T22:16:18.266Z,19.67
2018-09-01T22:18:48.069Z,19.67
2018-09-01T22:21:16.944Z,19.66
2018-09-01T22:23:45.602Z,19.65
2018-09-01T22:26:14.479Z,19.65
2018-09-01T22:28:43.204Z,19.62
2018-09-01T22:31:12.093Z,19.62
2018-09-01T22:33:42.532Z,19.60
2018-09-01T22:36:12.195Z,19.59
2018-09-01T22:38:41.286Z,19.59
2018-09-01T22:41:10.903Z,19.58
2018-09-01T22:43:39.644Z,19.58
2018-09-01T22:46:08.413Z,19.56
2018-09-01T22:48:37.144Z,19.56
2018-09-01T22:51:09.096Z,19.56
2018-09-01T22:53:37.896Z,19.54
2018-09-01T22:56:08.200Z,19.55
2018-09-01T22:58:37.436Z,19.53
2018-09-01T23:01:07.581Z,19.52
2018-09-01T23:03:36.355Z,19.51
2018-09-01T23:06:05.126Z,19.51
2018-09-01T23:08:34.016Z,19.50
2018-09-01T23:11:02.744Z,19.49
2018-09-01T23:13:31.511Z,19.48
2018-09-01T23:16:01.417Z,19.47
2018-09-01T23:18:30.077Z,19.46
2018-09-01T23:20:58.820Z,19.44
2018-09-01T23:23:27.564Z,19.43
2018-09-01T23:25:56.576Z,19.42
2018-09-01T23:28:26.994Z,19.41
2018-09-01T23:30:55.911Z,19.40
2018-09-01T23:33:24.641Z,19.38
2018-09-01T23:35:54.157Z,19.37
2018-09-01T23:38:24.177Z,19.36
2018-09-01T23:40:53.419Z,19.35
2018-09-01T23:43:22.172Z,19.33
2018-09-01T23:45:51.192Z,19.32
2018-09-01T23:48:20.900Z,19.29
2018-09-01T23:50:50.320Z,19.27
2018-09-01T23:53:19.175Z,19.24
2018-09-01T23:55:47.858Z,19.23
2018-09-01T23:58:17.199Z,19.23
